createdAt,value
2022-10-14T00:00:12.569Z,83.14
2022-10-14T00:02:41.607Z,82.81
2022-10-14T00:05:09.939Z,82.83
2022-10-14T00:07:37.588Z,82.62
2022-10-14T00:10:06.088Z,82.39
2022-10-14T00:12:33.968Z,82.04
2022-10-14T00:15:01.077Z,82.23
2022-10-14T00:17:27.782Z,82.44
2022-10-14T00:19:54.865Z,82.47
2022-10-14T00:22:21.642Z,82.29
2022-10-14T00:24:48.240Z,82.65
2022-10-14T00:27:15.365Z,82.71
2022-10-14T00:29:42.111Z,82.32
2022-10-14T00:32:08.934Z,82.31
2022-10-14T00:34:36.019Z,82.12
2022-10-14T00:37:04.198Z,82.44
2022-10-14T00:39:32.366Z,82.59
2022-10-14T00:41:59.065Z,82.60
2022-10-14T00:44:25.665Z,82.75
2022-10-14T00:46:52.517Z,82.29
2022-10-14T00:49:24.815Z,82.63
2022-10-14T00:51:54.088Z,82.92
2022-10-14T00:54:24.005Z,82.72
2022-10-14T00:56:52.790Z,83.19
2022-10-14T00:59:19.707Z,83.10
2022-10-14T01:01:46.757Z,83.24
2022-10-14T01:04:13.452Z,83.07
2022-10-14T01:06:42.402Z,83.56
2022-10-14T01:09:16.307Z,83.46
2022-10-14T01:12:28.032Z,83.22
2022-10-14T01:15:21.370Z,83.37
2022-10-14T01:18:06.613Z,83.63
2022-10-14T01:20:41.701Z,83.36
2022-10-14T01:23:36.763Z,84.15
2022-10-14T01:26:10.756Z,84.00
2022-10-14T01:29:18.219Z,83.35
2022-10-14T01:31:57.651Z,83.55
2022-10-14T01:34:34.680Z,83.47
2022-10-14T01:37:09.295Z,83.83
2022-10-14T01:39:51.248Z,83.56
2022-10-14T01:42:25.929Z,83.65
2022-10-14T01:44:59.473Z,83.49
2022-10-14T01:47:30.566Z,83.21
2022-10-14T01:50:02.106Z,83.09
2022-10-14T01:52:34.487Z,83.18
2022-10-14T01:55:12.104Z,82.81
2022-10-14T01:57:42.708Z,82.79
2022-10-14T02:00:11.397Z,83.00
2022-10-14T02:02:41.371Z,83.27
2022-10-14T02:05:22.286Z,83.10
2022-10-14T02:07:54.885Z,83.09
2022-10-14T02:10:23.187Z,83.31
2022-10-14T02:13:33.037Z,82.95
2022-10-14T02:16:08.890Z,82.70
2022-10-14T02:18:47.164Z,83.10
2022-10-14T02:21:30.072Z,82.83
2022-10-14T02:24:10.016Z,82.81
2022-10-14T02:26:39.444Z,83.33
2022-10-14T02:29:06.404Z,83.64
2022-10-14T02:31:38.681Z,83.18
2022-10-14T02:34:10.128Z,83.66
2022-10-14T02:36:37.846Z,83.74
2022-10-14T02:39:07.945Z,84.34
2022-10-14T02:41:38.620Z,84.26
2022-10-14T02:44:08.141Z,84.03
2022-10-14T02:46:35.486Z,83.87
2022-10-14T02:49:02.341Z,84.30
2022-10-14T02:51:29.039Z,84.36
2022-10-14T02:53:57.554Z,84.39
2022-10-14T02:56:26.247Z,84.29
2022-10-14T02:58:52.947Z,84.23
2022-10-14T03:01:20.392Z,84.71
2022-10-14T03:03:47.178Z,84.08
2022-10-14T03:06:14.571Z,84.10
2022-10-14T03:08:42.130Z,84.06
2022-10-14T03:11:09.487Z,84.05
2022-10-14T03:13:36.124Z,84.54
2022-10-14T03:16:02.944Z,84.11
2022-10-14T03:18:29.674Z,84.04
2022-10-14T03:21:02.664Z,84.24
2022-10-14T03:23:35.844Z,83.85
2022-10-14T03:26:02.957Z,84.26
2022-10-14T03:28:35.349Z,84.48
2022-10-14T03:31:13.270Z,84.51
2022-10-14T03:33:58.586Z,84.34
2022-10-14T03:36:27.333Z,84.16
2022-10-14T03:38:56.840Z,84.13
2022-10-14T03:41:49.447Z,84.50
2022-10-14T03:44:20.928Z,84.69
2022-10-14T03:47:07.767Z,84.74
2022-10-14T03:49:34.474Z,84.45
2022-10-14T03:52:09.198Z,84.36
2022-10-14T03:54:37.503Z,84.58
2022-10-14T03:57:04.995Z,84.72
2022-10-14T03:59:39.834Z,84.76
2022-10-14T04:02:07.536Z,84.84
2022-10-14T04:04:34.214Z,84.67
2022-10-14T04:07:00.909Z,84.97
2022-10-14T04:09:29.287Z,84.76
2022-10-14T04:11:57.849Z,84.79
2022-10-14T04:14:41.675Z,85.24
2022-10-14T04:17:08.439Z,84.95
2022-10-14T04:19:35.095Z,85.09
2022-10-14T04:22:02.824Z,84.92
2022-10-14T04:24:30.568Z,84.79
2022-10-14T04:26:59.050Z,85.30
2022-10-14T04:29:35.663Z,85.19
2022-10-14T04:32:08.563Z,85.61
2022-10-14T04:34:36.129Z,85.70
2022-10-14T04:37:03.304Z,85.64
2022-10-14T04:39:48.219Z,85.78
2022-10-14T04:42:16.356Z,85.75
2022-10-14T04:44:46.872Z,85.60
2022-10-14T04:47:14.836Z,85.99
2022-10-14T04:49:41.574Z,85.76
2022-10-14T04:52:18.047Z,85.69
2022-10-14T04:55:07.921Z,85.73
2022-10-14T04:57:40.473Z,85.72
2022-10-14T05:00:08.009Z,85.87
2022-10-14T05:02:54.936Z,85.56
2022-10-14T05:05:28.537Z,85.88
2022-10-14T05:07:58.220Z,85.48
2022-10-14T05:10:34.007Z,85.56
2022-10-14T05:13:03.722Z,85.49
2022-10-14T05:15:35.678Z,85.93
2022-10-14T05:18:13.026Z,86.30
2022-10-14T05:21:01.678Z,86.67
2022-10-14T05:23:53.858Z,87.06
2022-10-14T05:26:20.871Z,86.77
2022-10-14T05:28:51.259Z,86.70
2022-10-14T05:31:19.622Z,86.43
2022-10-14T05:33:55.137Z,86.06
2022-10-14T05:36:21.957Z,86.02
2022-10-14T05:38:50.683Z,86.26
2022-10-14T05:41:21.278Z,85.82
2022-10-14T05:43:48.388Z,85.61
2022-10-14T05:46:16.504Z,84.40
2022-10-14T05:48:48.075Z,83.81
2022-10-14T05:51:15.554Z,83.59
2022-10-14T05:53:43.682Z,83.33
2022-10-14T05:56:15.835Z,83.06
2022-10-14T05:58:42.509Z,82.95
2022-10-14T06:01:10.969Z,82.50
2022-10-14T06:03:40.335Z,82.39
2022-10-14T06:06:14.470Z,82.38
2022-10-14T06:08:42.349Z,82.52
2022-10-14T06:11:09.656Z,82.55
2022-10-14T06:13:36.555Z,82.72
2022-10-14T06:16:08.821Z,82.75
2022-10-14T06:18:36.499Z,83.19
2022-10-14T06:21:05.263Z,83.52
2022-10-14T06:23:32.412Z,84.00
2022-10-14T06:25:59.070Z,84.03
2022-10-14T06:28:26.309Z,84.49
2022-10-14T06:30:54.048Z,84.55
2022-10-14T06:33:21.825Z,84.60
2022-10-14T06:35:49.060Z,84.95
2022-10-14T06:38:15.811Z,84.66
2022-10-14T06:40:42.469Z,84.87
2022-10-14T06:43:09.222Z,84.86
2022-10-14T06:45:35.949Z,84.81
2022-10-14T06:48:04.865Z,84.58
2022-10-14T06:50:31.591Z,84.40
2022-10-14T06:52:58.330Z,84.68
2022-10-14T06:55:25.020Z,84.48
2022-10-14T06:57:51.838Z,84.25
2022-10-14T07:00:18.792Z,84.22
2022-10-14T07:02:45.554Z,83.90
2022-10-14T07:05:13.085Z,82.60
2022-10-14T07:07:39.882Z,79.77
2022-10-14T07:10:07.119Z,78.93
2022-10-14T07:12:33.974Z,77.34
2022-10-14T07:15:00.833Z,75.52
2022-10-14T07:17:27.565Z,75.66
2022-10-14T07:19:54.340Z,75.00
2022-10-14T07:22:21.372Z,75.41
2022-10-14T07:24:48.385Z,75.98
2022-10-14T07:27:20.703Z,75.40
2022-10-14T07:29:47.771Z,75.65
2022-10-14T07:32:14.481Z,75.49
2022-10-14T07:34:41.127Z,73.96
2022-10-14T07:37:07.806Z,72.41
2022-10-14T07:39:34.748Z,71.74
2022-10-14T07:42:01.471Z,71.36
2022-10-14T07:44:28.374Z,71.21
2022-10-14T07:46:55.150Z,70.08
2022-10-14T07:49:22.779Z,70.35
2022-10-14T07:51:49.575Z,69.18
2022-10-14T07:54:22.353Z,70.35
2022-10-14T07:56:49.510Z,68.95
2022-10-14T07:59:20.760Z,68.29
2022-10-14T08:01:49.126Z,67.10
2022-10-14T08:04:16.171Z,66.70
2022-10-14T08:06:42.911Z,65.46
2022-10-14T08:09:12.269Z,63.96
2022-10-14T08:11:39.596Z,64.07
2022-10-14T08:14:07.154Z,64.29
2022-10-14T08:16:36.099Z,63.75
2022-10-14T08:19:14.265Z,65.06
2022-10-14T08:21:42.736Z,66.38
2022-10-14T08:24:10.681Z,67.91
2022-10-14T08:26:49.919Z,67.92
2022-10-14T08:29:17.077Z,70.08
2022-10-14T08:31:43.897Z,70.50
2022-10-14T08:34:11.251Z,71.47
2022-10-14T08:36:37.956Z,71.51
2022-10-14T08:39:05.791Z,71.81
2022-10-14T08:42:02.382Z,71.09
2022-10-14T08:44:41.323Z,70.87
2022-10-14T08:47:14.119Z,71.25
2022-10-14T08:49:57.230Z,69.73
2022-10-14T08:52:33.632Z,69.79
2022-10-14T08:55:21.309Z,69.41
2022-10-14T08:58:00.465Z,69.97
2022-10-14T09:00:31.168Z,70.11
2022-10-14T09:03:00.754Z,70.53
2022-10-14T09:05:27.668Z,69.90
2022-10-14T09:07:57.752Z,69.31
2022-10-14T09:10:34.869Z,71.95
2022-10-14T09:13:31.143Z,69.23
2022-10-14T09:16:08.197Z,69.84
2022-10-14T09:18:44.475Z,68.19
2022-10-14T09:21:47.970Z,66.30
2022-10-14T09:24:36.787Z,64.93
2022-10-14T09:27:06.874Z,64.96
2022-10-14T09:29:48.941Z,63.96
2022-10-14T09:32:27.220Z,64.43
2022-10-14T09:34:55.307Z,64.43
2022-10-14T09:37:33.621Z,65.52
2022-10-14T09:40:26.573Z,67.42
2022-10-14T09:43:09.365Z,68.14
2022-10-14T09:46:00.148Z,68.08
2022-10-14T09:48:40.120Z,68.48
2022-10-14T09:51:23.956Z,68.52
2022-10-14T09:53:56.432Z,68.80
2022-10-14T09:56:39.081Z,67.97
2022-10-14T09:59:22.472Z,67.42
2022-10-14T10:01:54.791Z,66.52
2022-10-14T10:04:36.543Z,67.01
2022-10-14T10:07:07.450Z,66.22
2022-10-14T10:09:34.813Z,66.85
2022-10-14T10:12:22.527Z,67.87
2022-10-14T10:15:03.841Z,68.03
2022-10-14T10:17:37.072Z,67.50
2022-10-14T10:20:31.755Z,67.70
2022-10-14T10:23:22.866Z,67.79
2022-10-14T10:26:25.813Z,67.96
2022-10-14T10:28:54.001Z,67.58
2022-10-14T10:31:26.692Z,67.09
2022-10-14T10:34:39.542Z,66.44
2022-10-14T10:37:23.705Z,67.29
2022-10-14T10:40:16.437Z,65.06
2022-10-14T10:43:01.558Z,65.28
2022-10-14T10:46:03.822Z,63.62
2022-10-14T10:48:41.260Z,63.16
2022-10-14T10:51:29.885Z,62.37
2022-10-14T10:54:19.221Z,61.68
2022-10-14T10:56:59.231Z,60.85
2022-10-14T10:59:44.609Z,61.59
2022-10-14T11:02:20.877Z,62.60
2022-10-14T11:04:56.585Z,61.01
2022-10-14T11:07:53.861Z,61.17
2022-10-14T11:10:46.980Z,62.98
2022-10-14T11:13:29.432Z,60.71
2022-10-14T11:16:26.497Z,63.58
2022-10-14T11:23:30.480Z,63.24
2022-10-14T11:26:27.338Z,63.67
2022-10-14T11:29:08.914Z,63.76
2022-10-14T11:32:03.952Z,63.35
2022-10-14T11:34:44.545Z,62.56
2022-10-14T11:37:40.504Z,63.01
2022-10-14T11:40:29.108Z,62.42
2022-10-14T11:43:11.029Z,64.01
2022-10-14T11:46:00.875Z,63.17
2022-10-14T11:48:49.001Z,63.98
2022-10-14T11:51:31.914Z,63.98
2022-10-14T11:54:11.225Z,63.64
2022-10-14T11:57:01.964Z,63.78
2022-10-14T11:59:53.340Z,64.19
2022-10-14T12:02:36.827Z,63.45
2022-10-14T12:05:20.725Z,62.62
2022-10-14T12:08:31.759Z,63.08
2022-10-14T12:11:48.326Z,61.64
2022-10-14T12:14:23.094Z,62.69
2022-10-14T12:16:50.295Z,61.71
2022-10-14T12:19:28.573Z,61.68
2022-10-14T12:21:55.260Z,62.00
2022-10-14T12:24:39.231Z,62.96
2022-10-14T12:27:11.626Z,62.61
2022-10-14T12:29:43.668Z,63.08
2022-10-14T12:32:16.457Z,63.52
2022-10-14T12:34:44.232Z,63.01
2022-10-14T12:37:38.142Z,64.33
2022-10-14T12:40:07.871Z,64.08
2022-10-14T12:42:57.931Z,63.32
2022-10-14T12:45:30.193Z,62.87
2022-10-14T12:48:26.324Z,60.84
2022-10-14T12:51:08.498Z,61.11
2022-10-14T12:53:37.058Z,61.68
2022-10-14T12:56:05.652Z,61.37
2022-10-14T12:58:40.365Z,61.27
2022-10-14T13:01:17.634Z,61.47
2022-10-14T13:03:54.072Z,61.08
2022-10-14T13:06:33.660Z,61.18
2022-10-14T13:09:12.285Z,62.24
2022-10-14T13:11:40.206Z,61.06
2022-10-14T13:14:27.697Z,61.50
2022-10-14T13:17:02.347Z,60.79
2022-10-14T13:19:34.996Z,61.38
2022-10-14T13:22:03.516Z,61.08
2022-10-14T13:24:38.340Z,61.87
2022-10-14T13:27:30.087Z,62.16
2022-10-14T13:30:02.404Z,62.82
2022-10-14T13:33:01.899Z,60.99
2022-10-14T13:35:46.707Z,60.71
2022-10-14T13:38:17.086Z,60.49
2022-10-14T13:40:58.353Z,60.68
2022-10-14T13:43:34.691Z,59.94
2022-10-14T13:46:20.321Z,60.56
2022-10-14T13:48:50.199Z,61.80
2022-10-14T13:51:24.472Z,62.50
2022-10-14T13:54:08.531Z,62.69
2022-10-14T13:56:35.184Z,61.92
2022-10-14T13:59:03.602Z,62.26
2022-10-14T14:01:39.276Z,62.46
2022-10-14T14:04:06.187Z,62.94
2022-10-14T14:06:40.066Z,63.33
2022-10-14T14:09:24.176Z,63.01
2022-10-14T14:11:54.783Z,63.01
2022-10-14T14:14:43.073Z,63.74
2022-10-14T14:17:19.130Z,64.59
2022-10-14T14:19:50.704Z,64.51
2022-10-14T14:22:29.279Z,64.35
2022-10-14T14:25:33.352Z,64.69
2022-10-14T14:28:03.216Z,64.62
2022-10-14T14:30:35.780Z,64.99
2022-10-14T14:33:07.025Z,65.14
2022-10-14T14:35:36.092Z,65.68
2022-10-14T14:38:03.331Z,65.73
2022-10-14T14:40:31.603Z,65.80
2022-10-14T14:43:03.563Z,65.99
2022-10-14T14:45:35.078Z,65.64
2022-10-14T14:48:04.266Z,65.51
2022-10-14T15:06:33.797Z,66.68
2022-10-14T15:09:10.971Z,66.08
2022-10-14T15:11:55.543Z,66.40
2022-10-14T15:14:34.879Z,66.67
2022-10-14T15:17:05.707Z,66.99
2022-10-14T15:19:38.352Z,67.05
2022-10-14T15:22:16.385Z,67.38
2022-10-14T15:25:23.795Z,67.63
2022-10-14T15:27:54.903Z,67.51
2022-10-14T15:30:32.945Z,67.69
2022-10-14T15:33:19.509Z,67.02
2022-10-14T15:35:54.206Z,67.41
2022-10-14T15:38:22.669Z,67.25
2022-10-14T15:40:52.732Z,67.55
2022-10-14T15:43:25.129Z,68.04
2022-10-14T15:46:15.388Z,68.21
2022-10-14T15:48:57.321Z,68.55
2022-10-14T15:51:30.451Z,68.92
2022-10-14T15:53:57.980Z,69.13
2022-10-14T15:56:24.602Z,69.46
2022-10-14T15:58:51.214Z,69.61
2022-10-14T16:01:20.796Z,69.98
2022-10-14T16:03:55.390Z,70.49
2022-10-14T16:06:24.125Z,70.79
2022-10-14T16:08:51.343Z,70.88
2022-10-14T16:11:30.132Z,70.85
2022-10-14T16:13:57.794Z,71.07
2022-10-14T16:16:31.677Z,71.26
2022-10-14T16:19:02.358Z,71.56
2022-10-14T16:21:29.949Z,71.46
2022-10-14T16:23:59.491Z,71.64
2022-10-14T16:26:26.555Z,71.98
2022-10-14T16:28:55.998Z,72.07
2022-10-14T16:31:23.063Z,72.30
2022-10-14T16:33:54.835Z,72.35
2022-10-14T16:36:23.313Z,72.64
2022-10-14T16:38:53.599Z,73.05
2022-10-14T16:41:20.402Z,72.99
2022-10-14T16:43:47.841Z,72.65
2022-10-14T16:46:17.483Z,72.76
2022-10-14T16:48:45.066Z,72.78
2022-10-14T16:51:11.976Z,73.25
2022-10-14T16:53:50.908Z,73.08
2022-10-14T16:56:40.405Z,73.15
2022-10-14T16:59:08.190Z,73.78
2022-10-14T17:01:35.152Z,73.75
2022-10-14T17:04:04.339Z,73.97
2022-10-14T17:06:31.148Z,74.11
2022-10-14T17:08:58.119Z,74.11
2022-10-14T17:11:27.386Z,73.88
2022-10-14T17:13:56.555Z,73.86
2022-10-14T17:16:25.984Z,74.15
2022-10-14T17:18:52.811Z,73.30
2022-10-14T17:21:22.261Z,73.11
2022-10-14T17:23:49.380Z,72.34
2022-10-14T17:26:18.542Z,72.38
2022-10-14T17:28:47.258Z,72.40
2022-10-14T17:31:22.854Z,72.94
2022-10-14T17:33:50.314Z,73.27
2022-10-14T17:36:19.735Z,73.25
2022-10-14T17:38:47.901Z,73.86
2022-10-14T17:41:15.829Z,74.11
2022-10-14T17:43:42.889Z,74.23
2022-10-14T17:46:11.937Z,74.60
2022-10-14T17:48:42.567Z,74.47
2022-10-14T17:51:16.007Z,75.10
2022-10-14T17:53:45.954Z,75.05
2022-10-14T17:56:13.401Z,75.18
2022-10-14T17:58:40.775Z,75.69
2022-10-14T18:01:11.986Z,75.69
2022-10-14T18:03:41.965Z,76.26
2022-10-14T18:06:18.929Z,76.35
2022-10-14T18:08:51.130Z,77.13
2022-10-14T18:11:23.044Z,77.15
2022-10-14T18:13:53.906Z,77.00
2022-10-14T18:16:23.309Z,76.85
2022-10-14T18:18:50.112Z,77.21
2022-10-14T18:21:18.212Z,77.21
2022-10-14T18:23:47.355Z,77.15
2022-10-14T18:26:19.960Z,77.03
2022-10-14T18:28:51.791Z,77.71
2022-10-14T18:31:19.827Z,77.69
2022-10-14T18:33:48.175Z,77.99
2022-10-14T18:36:20.281Z,77.82
2022-10-14T18:38:57.953Z,77.94
2022-10-14T18:41:25.849Z,78.27
2022-10-14T18:43:54.543Z,78.08
2022-10-14T18:46:27.622Z,78.30
2022-10-14T18:49:01.910Z,78.61
2022-10-14T18:51:30.958Z,78.65
2022-10-14T18:54:00.743Z,78.48
2022-10-14T18:56:31.669Z,78.53
2022-10-14T18:59:07.193Z,78.59
2022-10-14T19:01:37.199Z,78.48
2022-10-14T19:04:09.602Z,78.35
2022-10-14T19:06:36.768Z,78.45
2022-10-14T19:09:04.626Z,78.16
2022-10-14T19:11:33.129Z,78.13
2022-10-14T19:14:03.297Z,77.73
2022-10-14T19:16:32.393Z,77.64
2022-10-14T19:19:15.192Z,77.42
2022-10-14T19:21:43.379Z,77.37
2022-10-14T19:24:11.876Z,77.28
2022-10-14T19:26:41.526Z,77.33
2022-10-14T19:29:11.691Z,76.98
2022-10-14T19:31:39.708Z,77.16
2022-10-14T19:34:08.346Z,77.00
2022-10-14T19:36:37.547Z,76.79
2022-10-14T19:39:05.508Z,76.67
2022-10-14T19:41:35.531Z,77.03
2022-10-14T19:44:02.200Z,76.62
2022-10-14T19:46:29.621Z,76.88
2022-10-14T19:49:02.351Z,76.73
2022-10-14T19:51:29.270Z,77.30
2022-10-14T19:53:56.369Z,77.35
2022-10-14T19:56:24.802Z,77.43
2022-10-14T19:58:53.945Z,78.06
2022-10-14T20:01:25.598Z,78.38
2022-10-14T20:03:53.373Z,78.64
2022-10-14T20:06:21.200Z,79.09
2022-10-14T20:08:48.001Z,79.16
2022-10-14T20:11:17.392Z,79.52
2022-10-14T20:13:44.702Z,79.56
2022-10-14T20:16:12.347Z,79.85
2022-10-14T20:18:39.672Z,80.21
2022-10-14T20:21:07.616Z,80.41
2022-10-14T20:23:36.333Z,80.72
2022-10-14T20:26:05.504Z,80.59
2022-10-14T20:28:34.519Z,80.77
2022-10-14T20:31:01.362Z,81.06
2022-10-14T20:33:31.564Z,81.40
2022-10-14T20:36:02.181Z,81.08
2022-10-14T20:38:29.155Z,81.60
2022-10-14T20:40:55.881Z,81.72
2022-10-14T20:43:22.546Z,81.61
2022-10-14T20:45:49.181Z,81.55
2022-10-14T20:48:16.017Z,81.72
2022-10-14T20:50:42.742Z,81.41
2022-10-14T20:53:09.339Z,81.57
2022-10-14T20:55:35.981Z,81.64
2022-10-14T20:58:02.639Z,81.46
2022-10-14T21:00:29.680Z,81.59
2022-10-14T21:02:56.519Z,81.54
2022-10-14T21:05:23.256Z,81.52
2022-10-14T21:07:52.061Z,81.62
2022-10-14T21:10:19.341Z,81.65
2022-10-14T21:12:48.703Z,81.73
2022-10-14T21:15:15.991Z,82.05
2022-10-14T21:17:48.772Z,82.13
2022-10-14T21:20:15.978Z,82.61
2022-10-14T21:22:42.814Z,82.73
2022-10-14T21:25:09.694Z,82.80
2022-10-14T21:27:36.355Z,82.99
2022-10-14T21:30:03.522Z,83.11
2022-10-14T21:32:30.716Z,83.15
2022-10-14T21:34:58.575Z,83.21
2022-10-14T21:37:25.244Z,83.50
2022-10-14T21:39:51.865Z,83.32
2022-10-14T21:42:18.855Z,83.37
2022-10-14T21:44:45.530Z,83.26
2022-10-14T21:47:12.219Z,83.44
2022-10-14T21:49:39.089Z,83.44
2022-10-14T21:52:05.802Z,83.55
2022-10-14T21:54:32.409Z,83.38
2022-10-14T21:56:59.073Z,83.59
2022-10-14T21:59:25.823Z,83.53
2022-10-14T22:01:56.500Z,83.36
2022-10-14T22:04:23.181Z,83.22
2022-10-14T22:06:49.841Z,83.10
2022-10-14T22:09:16.504Z,82.73
2022-10-14T22:11:43.346Z,82.76
2022-10-14T22:14:17.533Z,82.92
2022-10-14T22:16:45.592Z,82.84
2022-10-14T22:19:13.016Z,82.63
2022-10-14T22:21:42.262Z,82.63
2022-10-14T22:24:10.278Z,82.49
2022-10-14T22:26:37.973Z,82.21
2022-10-14T22:29:17.026Z,82.27
2022-10-14T22:31:44.603Z,82.26
2022-10-14T22:34:15.207Z,82.29
2022-10-14T22:36:42.753Z,82.47
2022-10-14T22:39:14.962Z,82.94
2022-10-14T22:41:41.842Z,82.92
2022-10-14T22:44:09.175Z,82.68
2022-10-14T22:46:37.843Z,82.62
2022-10-14T22:49:04.853Z,82.89
2022-10-14T22:51:40.617Z,83.10
2022-10-14T22:54:07.559Z,83.00
2022-10-14T22:56:34.338Z,83.16
2022-10-14T22:59:07.114Z,83.06
2022-10-14T23:01:34.692Z,83.21
2022-10-14T23:04:01.796Z,83.37
2022-10-14T23:06:29.287Z,83.51
2022-10-14T23:08:56.244Z,83.52
2022-10-14T23:11:24.497Z,83.62
2022-10-14T23:13:51.585Z,83.82
2022-10-14T23:16:24.078Z,83.76
2022-10-14T23:18:52.039Z,83.97
2022-10-14T23:21:26.069Z,84.24
2022-10-14T23:23:55.648Z,84.25
2022-10-14T23:26:27.447Z,84.38
2022-10-14T23:28:57.586Z,84.69
2022-10-14T23:31:28.063Z,84.65
2022-10-14T23:33:57.395Z,84.73
2022-10-14T23:36:24.187Z,84.98
2022-10-14T23:38:54.155Z,85.03
2022-10-14T23:41:22.218Z,85.31
2022-10-14T23:43:50.957Z,85.48
2022-10-14T23:46:19.545Z,85.61
2022-10-14T23:48:55.365Z,85.56
2022-10-14T23:51:33.055Z,85.77
2022-10-14T23:53:59.743Z,85.58
2022-10-14T23:56:26.647Z,85.93
2022-10-14T23:58:53.334Z,85.94
